KILN/ILN METAR and TAF weather

Enter ICAO airport designator
Station Type Date Time Source
KILN METAR 2020/07/10 23:54 UTC NOAA

KILN 102354Z AUTO 28013G19KT 10SM FEW080 FEW095 27/19 A2983 RMK AO2 SLP086 60006 T02670189 10306 20261 51006


Station Type Date Time Source
KILN Decoded METAR 2020/07/10 23:54 UTC NOAA

WILMINGTON INDUSTRIAL AIRPORT , OH, United States (KILN) 39-26N 083-47W 332M
Jul 10, 2020 - 07:54 PM EDT / 2020.07.10 2354 UTC
Wind: from the W (280 degrees) at 15 MPH (13 KT) gusting to 22 MPH (19 KT):0
Visibility: 10 mile(s):0
Sky conditions: mostly clear
Temperature: 80.1 F (26.7 C)
Dew Point: 66.0 F (18.9 C)
Relative Humidity: 62%
Pressure (altimeter): 29.83 in. Hg (1010 hPa)
Pressure tendency: 0.02 inches (0.6 hPa) higher than three hours ago
ob: KILN 102354Z AUTO 28013G19KT 10SM FEW080 FEW095 27/19 A2983 RMK AO2 SLP086 60006 T02670189 10306 20261 51006
cycle: 0

Station Type Date Time Source
KILN TAF 2020/07/10 20:27 UTC NOAA

TAF
AMD KILN 102023Z 1020/1118 28017G26KT P6SM SCT040 BKN050
FM110200 28010KT P6SM FEW040

Example: see airport list